createdAt,value
2019-01-25T00:02:17.229Z,93661.02
2019-01-25T00:04:50.929Z,93674.45
2019-01-25T00:07:24.309Z,93670.36
2019-01-25T00:10:06.895Z,93655.61
2019-01-25T00:12:51.497Z,93659.98
2019-01-25T00:15:36.842Z,93665.22
2019-01-25T00:18:12.856Z,93661.90
2019-01-25T00:20:46.306Z,93667.63
2019-01-25T00:23:19.499Z,93674.16
2019-01-25T00:25:51.821Z,93660.38
2019-01-25T00:28:24.585Z,93663.55
2019-01-25T00:30:59.137Z,93662.98
2019-01-25T00:33:32.353Z,93659.30
2019-01-25T00:36:05.528Z,93653.36
2019-01-25T00:38:38.951Z,93657.11
2019-01-25T00:41:12.143Z,93660.64
2019-01-25T00:43:44.357Z,93647.33
2019-01-25T00:46:17.689Z,93662.03
2019-01-25T00:48:51.199Z,93652.80
2019-01-25T00:51:24.505Z,93650.34
2019-01-25T00:53:57.221Z,93671.88
2019-01-25T00:56:30.393Z,93670.34
2019-01-25T00:59:03.523Z,93662.47
2019-01-25T01:01:35.725Z,93667.81
2019-01-25T01:04:09.395Z,93647.33
2019-01-25T01:06:44.183Z,93659.60
2019-01-25T01:09:30.417Z,93640.24
2019-01-25T01:12:08.697Z,93658.51
2019-01-25T01:14:41.855Z,93652.07
2019-01-25T01:17:14.217Z,93650.27
2019-01-25T01:19:47.334Z,93642.81
2019-01-25T01:22:21.219Z,93653.38
2019-01-25T01:24:54.309Z,93650.17
2019-01-25T01:27:26.721Z,93651.00
2019-01-25T01:29:59.809Z,93633.77
2019-01-25T01:32:32.038Z,93633.83
2019-01-25T01:35:05.310Z,93649.36
2019-01-25T01:37:38.256Z,93637.09
2019-01-25T01:40:22.041Z,93620.98
2019-01-25T01:42:54.751Z,93635.22
2019-01-25T01:45:28.247Z,93636.14
2019-01-25T01:48:01.683Z,93631.38
2019-01-25T01:50:34.391Z,93627.59
2019-01-25T01:53:08.301Z,93621.48
2019-01-25T01:55:42.719Z,93623.66
2019-01-25T01:58:16.206Z,93627.37
2019-01-25T02:00:49.771Z,93623.09
2019-01-25T02:03:22.997Z,93619.41
2019-01-25T02:05:55.178Z,93625.14
2019-01-25T02:08:28.593Z,93627.37
2019-01-25T02:11:14.576Z,93600.77
2019-01-25T02:13:47.775Z,93599.39
2019-01-25T02:16:21.012Z,93590.05
2019-01-25T02:18:54.519Z,93579.61
2019-01-25T02:21:27.609Z,93574.55
2019-01-25T02:24:00.163Z,93586.30
2019-01-25T02:26:33.074Z,93589.50
2019-01-25T02:29:05.819Z,93589.84
2019-01-25T02:31:39.134Z,93593.92
2019-01-25T02:34:12.844Z,93585.92
2019-01-25T02:36:45.956Z,93582.87
2019-01-25T02:39:18.224Z,93590.55
2019-01-25T02:41:51.753Z,93585.25
2019-01-25T02:44:25.029Z,93588.36
2019-01-25T02:46:58.369Z,93588.70
2019-01-25T02:49:30.559Z,93582.89
2019-01-25T02:52:03.536Z,93583.40
2019-01-25T02:54:35.814Z,93577.59
2019-01-25T02:57:08.677Z,93578.09
2019-01-25T02:59:42.283Z,93579.11
2019-01-25T03:02:15.521Z,93570.27
2019-01-25T03:04:48.786Z,93572.66
2019-01-25T03:07:22.262Z,93564.12
2019-01-25T03:10:06.411Z,93569.97
2019-01-25T03:12:47.110Z,93579.48
2019-01-25T03:15:24.988Z,93566.14
2019-01-25T03:17:58.140Z,93570.94
2019-01-25T03:20:33.059Z,93569.25
2019-01-25T03:23:06.751Z,93566.27
2019-01-25T03:25:40.317Z,93561.72
2019-01-25T03:28:14.073Z,93565.77
2019-01-25T03:30:47.368Z,93551.11
2019-01-25T03:33:20.573Z,93548.67
2019-01-25T03:35:53.822Z,93546.48
2019-01-25T03:38:26.937Z,93546.05
2019-01-25T03:41:01.091Z,93540.41
2019-01-25T03:43:34.573Z,93544.02
2019-01-25T03:46:08.776Z,93539.89
2019-01-25T03:48:42.019Z,93537.13
2019-01-25T03:51:15.271Z,93545.33
2019-01-25T03:53:47.935Z,93550.84
2019-01-25T03:56:20.863Z,93554.76
2019-01-25T03:58:54.191Z,93560.84
2019-01-25T04:01:27.893Z,93564.46
2019-01-25T04:04:01.933Z,93567.78
2019-01-25T04:06:35.933Z,93566.48
2019-01-25T04:09:11.172Z,93569.54
2019-01-25T04:11:57.164Z,93554.17
2019-01-25T04:14:43.337Z,93552.33
2019-01-25T04:17:17.369Z,93556.03
2019-01-25T04:19:50.481Z,93554.18
2019-01-25T04:22:22.886Z,93555.33
2019-01-25T04:24:55.864Z,93547.66
2019-01-25T04:27:27.909Z,93541.64
2019-01-25T04:30:01.211Z,93552.08
2019-01-25T04:32:34.556Z,93553.46
2019-01-25T04:35:09.292Z,93554.18
2019-01-25T04:37:42.560Z,93552.73
2019-01-25T04:40:16.573Z,93559.48
2019-01-25T04:42:50.075Z,93551.94
2019-01-25T04:45:23.396Z,93547.35
2019-01-25T04:47:57.273Z,93549.25
2019-01-25T04:50:31.101Z,93561.21
2019-01-25T04:53:04.625Z,93563.48
2019-01-25T04:55:37.865Z,93560.49
2019-01-25T04:58:22.411Z,93560.04
2019-01-25T05:00:55.591Z,93556.58
2019-01-25T05:03:28.105Z,93555.48
2019-01-25T05:06:01.147Z,93554.18
2019-01-25T05:08:33.289Z,93547.95
2019-01-25T05:11:19.850Z,93550.85
2019-01-25T05:13:51.475Z,93547.70
2019-01-25T05:16:23.387Z,93541.05
2019-01-25T05:18:56.921Z,93539.83
2019-01-25T05:21:29.985Z,93534.14
2019-01-25T05:24:10.630Z,93529.81
2019-01-25T05:26:43.857Z,93527.63
2019-01-25T05:29:21.757Z,93527.41
2019-01-25T05:31:58.708Z,93527.41
2019-01-25T05:34:32.114Z,93522.84
2019-01-25T05:37:08.488Z,93515.52
2019-01-25T05:39:42.069Z,93512.78
2019-01-25T05:42:16.671Z,93514.58
2019-01-25T05:44:50.416Z,93506.39
2019-01-25T05:47:23.856Z,93513.41
2019-01-25T05:49:57.695Z,93518.19
2019-01-25T05:52:30.854Z,93524.14
2019-01-25T05:55:06.296Z,93522.28
2019-01-25T05:57:42.608Z,93519.66
2019-01-25T06:00:16.679Z,93533.80
2019-01-25T06:02:50.417Z,93534.76
2019-01-25T06:05:24.028Z,93530.46
2019-01-25T06:07:57.941Z,93530.77
2019-01-25T06:10:43.950Z,93529.44
2019-01-25T06:13:27.924Z,93532.79
2019-01-25T06:16:10.322Z,93528.16
2019-01-25T06:18:43.603Z,93525.76
2019-01-25T06:21:18.343Z,93523.58
2019-01-25T06:23:54.293Z,93524.30
2019-01-25T06:26:28.007Z,93533.35
2019-01-25T06:29:01.181Z,93532.58
2019-01-25T06:31:33.356Z,93534.09
2019-01-25T06:34:09.933Z,93532.50
2019-01-25T06:36:42.933Z,93523.73
2019-01-25T06:39:16.475Z,93524.87
2019-01-25T06:41:52.258Z,93523.44
2019-01-25T06:44:27.252Z,93527.20
2019-01-25T06:47:00.928Z,93529.59
2019-01-25T06:49:36.704Z,93518.28
2019-01-25T06:52:10.449Z,93530.31
2019-01-25T06:54:44.214Z,93527.64
2019-01-25T06:57:32.326Z,93523.80
2019-01-25T07:00:06.962Z,93514.93
2019-01-25T07:02:41.692Z,93520.83
2019-01-25T07:05:14.703Z,93522.70
2019-01-25T07:07:49.325Z,93523.29
2019-01-25T07:10:37.291Z,93526.68
2019-01-25T07:13:19.220Z,93536.34
2019-01-25T07:16:07.180Z,93539.46
2019-01-25T07:18:53.720Z,93536.93
2019-01-25T07:21:30.253Z,93525.23
2019-01-25T07:24:04.063Z,93520.30
2019-01-25T07:26:37.746Z,93519.80
2019-01-25T07:29:11.900Z,93501.58
2019-01-25T07:31:46.803Z,93507.31
2019-01-25T07:34:20.353Z,93498.54
2019-01-25T07:36:54.981Z,93505.52
2019-01-25T07:39:30.386Z,93497.59
2019-01-25T07:42:03.612Z,93499.19
2019-01-25T07:44:37.145Z,93493.36
2019-01-25T07:47:10.481Z,93492.61
2019-01-25T07:49:44.717Z,93483.94
2019-01-25T07:52:18.476Z,93482.53
2019-01-25T07:54:52.459Z,93489.61
2019-01-25T07:57:28.664Z,93486.38
2019-01-25T08:00:02.386Z,93477.41
2019-01-25T08:02:36.943Z,93479.52
2019-01-25T08:05:10.796Z,93460.79
2019-01-25T08:07:44.341Z,93475.71
2019-01-25T08:10:19.078Z,93472.08
2019-01-25T08:13:04.533Z,93473.02
2019-01-25T08:15:49.169Z,93487.80
2019-01-25T08:18:28.005Z,93496.19
2019-01-25T08:21:05.380Z,93513.61
2019-01-25T08:23:42.043Z,93506.27
2019-01-25T08:26:16.068Z,93497.16
2019-01-25T08:28:49.829Z,93481.30
2019-01-25T08:31:23.509Z,93493.64
2019-01-25T08:33:58.554Z,93485.14
2019-01-25T08:36:33.562Z,93484.60
2019-01-25T08:39:11.154Z,93493.38
2019-01-25T08:41:45.197Z,93497.70
2019-01-25T08:44:18.745Z,93499.02
2019-01-25T08:46:53.155Z,93503.22
2019-01-25T08:49:27.089Z,93506.27
2019-01-25T08:52:01.259Z,93496.29
2019-01-25T08:54:35.277Z,93498.28
2019-01-25T08:57:09.474Z,93503.98
2019-01-25T08:59:45.588Z,93486.70
2019-01-25T09:02:21.061Z,93490.12
2019-01-25T09:04:54.301Z,93499.09
2019-01-25T09:07:27.075Z,93491.78
2019-01-25T09:10:00.874Z,93500.02
2019-01-25T09:12:46.790Z,93496.61
2019-01-25T09:15:23.224Z,93490.33
2019-01-25T09:17:56.863Z,93494.73
2019-01-25T09:20:31.823Z,93485.39
2019-01-25T09:23:05.893Z,93482.56
2019-01-25T09:25:39.206Z,93479.00
2019-01-25T09:28:12.897Z,93482.53
2019-01-25T09:30:46.753Z,93479.77
2019-01-25T09:33:21.202Z,93472.54
2019-01-25T09:35:54.908Z,93469.64
2019-01-25T09:38:28.717Z,93463.90
2019-01-25T09:41:02.629Z,93461.36
2019-01-25T09:43:36.341Z,93459.55
2019-01-25T09:46:10.457Z,93446.33
2019-01-25T09:48:44.043Z,93443.16
2019-01-25T09:51:17.578Z,93444.24
2019-01-25T09:53:52.420Z,93434.66
2019-01-25T09:56:26.312Z,93443.76
2019-01-25T09:59:00.295Z,93434.67
2019-01-25T10:01:34.154Z,93441.53
2019-01-25T10:04:09.217Z,93437.44
2019-01-25T10:06:42.313Z,93437.05
2019-01-25T10:09:14.891Z,93436.75
2019-01-25T10:12:01.091Z,93431.73
2019-01-25T10:14:46.047Z,93429.78
2019-01-25T10:17:30.148Z,93428.84
2019-01-25T10:20:15.998Z,93422.81
2019-01-25T10:23:02.416Z,93408.80
2019-01-25T10:25:48.518Z,93422.67
2019-01-25T10:28:34.559Z,93411.34
2019-01-25T10:31:12.208Z,93407.70
2019-01-25T10:33:45.599Z,93407.71
2019-01-25T10:36:18.029Z,93406.27
2019-01-25T10:38:51.611Z,93395.66
2019-01-25T10:41:26.237Z,93402.70
2019-01-25T10:43:59.477Z,93395.59
2019-01-25T10:46:31.882Z,93396.03
2019-01-25T10:49:05.414Z,93387.17
2019-01-25T10:51:39.498Z,93399.23
2019-01-25T10:54:14.149Z,93395.88
2019-01-25T10:56:48.021Z,93386.57
2019-01-25T10:59:22.121Z,93384.27
2019-01-25T11:01:56.448Z,93383.77
2019-01-25T11:04:30.421Z,93378.82
2019-01-25T11:07:04.343Z,93362.55
2019-01-25T11:09:38.401Z,93365.23
2019-01-25T11:12:22.313Z,93360.73
2019-01-25T11:15:04.199Z,93356.88
2019-01-25T11:17:38.043Z,93354.02
2019-01-25T11:20:14.174Z,93349.83
2019-01-25T11:22:47.563Z,93340.23
2019-01-25T11:25:29.771Z,93340.78
2019-01-25T11:28:04.345Z,93331.27
2019-01-25T11:30:37.752Z,93326.41
2019-01-25T11:33:10.525Z,93320.10
2019-01-25T11:35:44.258Z,93327.16
2019-01-25T11:38:17.622Z,93326.13
2019-01-25T11:40:51.327Z,93319.50
2019-01-25T11:43:24.825Z,93320.36
2019-01-25T11:45:58.019Z,93317.17
2019-01-25T11:48:31.108Z,93319.56
2019-01-25T11:51:04.503Z,93305.40
2019-01-25T11:53:38.457Z,93309.33
2019-01-25T11:56:12.589Z,93311.45
2019-01-25T11:58:47.319Z,93307.30
2019-01-25T12:01:21.507Z,93310.77
2019-01-25T12:03:55.305Z,93312.56
2019-01-25T12:06:29.071Z,93310.22
2019-01-25T12:09:03.445Z,93309.96
2019-01-25T12:11:38.661Z,93307.84
2019-01-25T12:14:12.383Z,93309.44
2019-01-25T12:16:46.053Z,93318.78
2019-01-25T12:19:19.923Z,93319.67
2019-01-25T12:21:54.316Z,93322.39
2019-01-25T12:24:28.025Z,93316.55
2019-01-25T12:27:01.563Z,93322.83
2019-01-25T12:29:35.103Z,93328.19
2019-01-25T12:32:08.517Z,93323.63
2019-01-25T12:34:42.299Z,93317.37
2019-01-25T12:37:16.947Z,93316.65
2019-01-25T12:39:50.538Z,93311.33
2019-01-25T12:42:24.194Z,93312.22
2019-01-25T12:44:57.121Z,93312.85
2019-01-25T12:47:31.031Z,93311.77
2019-01-25T12:50:05.145Z,93305.06
2019-01-25T12:52:38.891Z,93295.67
2019-01-25T12:55:12.452Z,93287.32
2019-01-25T12:57:45.381Z,93290.44
2019-01-25T13:00:25.305Z,93297.99
2019-01-25T13:03:04.861Z,93292.45
2019-01-25T13:05:38.887Z,93296.81
2019-01-25T13:08:12.835Z,93290.34
2019-01-25T13:10:46.714Z,93288.45
2019-01-25T13:13:31.726Z,93284.42
2019-01-25T13:16:08.679Z,93284.02
2019-01-25T13:18:42.828Z,93278.14
2019-01-25T13:21:16.422Z,93273.02
2019-01-25T13:23:50.874Z,93269.31
2019-01-25T13:26:24.775Z,93279.99
2019-01-25T13:28:58.592Z,93271.31
2019-01-25T13:31:36.179Z,93273.28
2019-01-25T13:34:09.269Z,93273.58
2019-01-25T13:36:43.366Z,93266.66
2019-01-25T13:39:17.365Z,93264.86
2019-01-25T13:41:51.919Z,93275.02
2019-01-25T13:44:30.101Z,93264.66
2019-01-25T13:47:00.975Z,93261.18
2019-01-25T13:49:35.830Z,93263.42
2019-01-25T13:52:09.670Z,93259.28
2019-01-25T13:54:43.204Z,93266.41
2019-01-25T13:57:17.053Z,93266.18
2019-01-25T13:59:51.011Z,93262.73
2019-01-25T14:02:24.581Z,93250.46
2019-01-25T14:04:59.875Z,93245.11
2019-01-25T14:07:33.503Z,93240.95
2019-01-25T14:10:09.406Z,93249.68
2019-01-25T14:12:44.933Z,93259.02
2019-01-25T14:15:19.025Z,93249.16
2019-01-25T14:17:53.218Z,93254.98
2019-01-25T14:20:28.209Z,93256.14
2019-01-25T14:23:01.827Z,93251.23
2019-01-25T14:25:35.729Z,93252.29
2019-01-25T14:28:09.938Z,93256.25
2019-01-25T14:30:44.181Z,93245.59
2019-01-25T14:33:17.975Z,93240.06
2019-01-25T14:35:52.055Z,93246.30
2019-01-25T14:38:26.873Z,93259.14
2019-01-25T14:41:02.711Z,93249.72
2019-01-25T14:43:37.353Z,93252.91
2019-01-25T14:46:10.468Z,93258.85
2019-01-25T14:48:43.929Z,93262.95
2019-01-25T14:51:17.763Z,93258.33
2019-01-25T14:53:53.931Z,93256.19
2019-01-25T14:56:27.426Z,93256.01
2019-01-25T14:59:01.085Z,93259.82
2019-01-25T15:01:36.365Z,93242.23
2019-01-25T15:04:10.935Z,93241.09
2019-01-25T15:06:45.267Z,93239.78
2019-01-25T15:09:21.048Z,93233.45
2019-01-25T15:11:54.871Z,93237.81
2019-01-25T15:14:28.450Z,93225.03
2019-01-25T15:17:02.852Z,93230.06
2019-01-25T15:19:36.606Z,93214.35
2019-01-25T15:22:10.251Z,93228.54
2019-01-25T15:24:44.773Z,93218.50
2019-01-25T15:27:18.277Z,93210.47
2019-01-25T15:29:52.097Z,93208.50
2019-01-25T15:32:25.659Z,93208.41
2019-01-25T15:35:01.366Z,93208.28
2019-01-25T15:37:34.778Z,93210.39
2019-01-25T15:40:09.997Z,93209.72
2019-01-25T15:42:45.195Z,93205.83
2019-01-25T15:45:19.057Z,93210.61
2019-01-25T15:47:52.083Z,93216.78
2019-01-25T15:50:25.434Z,93201.08
2019-01-25T15:52:59.738Z,93210.95
2019-01-25T15:55:33.358Z,93214.08
2019-01-25T15:58:07.154Z,93217.55
2019-01-25T16:00:41.979Z,93220.98
2019-01-25T16:03:17.210Z,93227.19
2019-01-25T16:05:51.440Z,93228.75
2019-01-25T16:08:25.343Z,93229.22
2019-01-25T16:10:59.000Z,93234.97
2019-01-25T16:13:45.367Z,93239.20
2019-01-25T16:16:29.373Z,93243.03
2019-01-25T16:19:08.483Z,93238.89
2019-01-25T16:21:42.505Z,93232.58
2019-01-25T16:24:15.845Z,93238.48
2019-01-25T16:26:49.219Z,93230.86
2019-01-25T16:29:22.563Z,93242.67
2019-01-25T16:31:56.465Z,93253.28
2019-01-25T16:34:30.458Z,93251.02
2019-01-25T16:37:04.127Z,93248.04
2019-01-25T16:39:37.455Z,93261.97
2019-01-25T16:42:10.608Z,93261.66
2019-01-25T16:44:42.839Z,93251.77
2019-01-25T16:47:16.626Z,93258.17
2019-01-25T16:49:50.890Z,93259.05
2019-01-25T16:52:24.853Z,93258.48
2019-01-25T16:54:58.923Z,93263.70
2019-01-25T16:57:32.446Z,93264.99
2019-01-25T17:00:07.839Z,93268.26
2019-01-25T17:02:41.381Z,93270.36
2019-01-25T17:05:14.685Z,93274.95
2019-01-25T17:07:49.886Z,93272.67
2019-01-25T17:10:23.772Z,93265.68
2019-01-25T17:13:03.543Z,93270.77
2019-01-25T17:15:37.289Z,93286.30
2019-01-25T17:18:10.691Z,93280.72
2019-01-25T17:20:44.339Z,93291.38
2019-01-25T17:23:18.560Z,93294.88
2019-01-25T17:25:52.744Z,93294.78
2019-01-25T17:28:27.007Z,93286.30
2019-01-25T17:31:01.108Z,93284.84
2019-01-25T17:33:34.669Z,93276.65
2019-01-25T17:36:08.431Z,93284.33
2019-01-25T17:38:42.124Z,93284.89
2019-01-25T17:41:17.034Z,93283.08
2019-01-25T17:43:50.909Z,93272.95
2019-01-25T17:46:24.163Z,93278.40
2019-01-25T17:48:58.184Z,93269.03
2019-01-25T17:51:31.768Z,93269.66
2019-01-25T17:54:05.278Z,93265.75
2019-01-25T17:56:39.333Z,93271.87
2019-01-25T17:59:13.106Z,93271.36
2019-01-25T18:01:47.694Z,93263.77
2019-01-25T18:04:25.481Z,93268.23
2019-01-25T18:06:59.056Z,93267.73
2019-01-25T18:09:33.064Z,93269.54
2019-01-25T18:12:08.528Z,93267.95
2019-01-25T18:14:51.725Z,93265.88
2019-01-25T18:17:26.410Z,93264.32
2019-01-25T18:19:59.816Z,93261.67
2019-01-25T18:22:33.402Z,93265.63
2019-01-25T18:25:07.470Z,93259.73
2019-01-25T18:27:43.701Z,93257.69
2019-01-25T18:30:29.380Z,93257.56
2019-01-25T18:33:06.459Z,93265.89
2019-01-25T18:35:40.164Z,93257.04
2019-01-25T18:38:13.901Z,93258.55
2019-01-25T18:40:49.410Z,93261.66
2019-01-25T18:43:22.702Z,93259.44
2019-01-25T18:45:56.498Z,93265.72
2019-01-25T18:48:33.539Z,93264.52
2019-01-25T18:51:07.528Z,93258.97
2019-01-25T18:53:44.657Z,93260.42
2019-01-25T18:56:19.466Z,93261.00
2019-01-25T18:58:54.329Z,93274.38
2019-01-25T19:01:28.830Z,93269.48
2019-01-25T19:04:02.824Z,93264.52
2019-01-25T19:06:36.897Z,93263.44
2019-01-25T19:09:11.085Z,93259.52
2019-01-25T19:11:44.984Z,93269.63
2019-01-25T19:14:29.090Z,93268.03
2019-01-25T19:17:07.058Z,93267.97
2019-01-25T19:19:40.628Z,93271.55
2019-01-25T19:22:14.151Z,93269.98
2019-01-25T19:24:48.135Z,93270.67
2019-01-25T19:27:21.929Z,93268.72
2019-01-25T19:29:55.560Z,93268.34
2019-01-25T19:32:29.183Z,93278.23
2019-01-25T19:35:02.741Z,93275.91
2019-01-25T19:37:37.321Z,93289.41
2019-01-25T19:40:12.589Z,93276.16
2019-01-25T19:42:46.026Z,93283.03
2019-01-25T19:45:20.723Z,93292.89
2019-01-25T19:47:55.300Z,93292.02
2019-01-25T19:50:29.553Z,93287.02
2019-01-25T19:53:03.391Z,93296.52
2019-01-25T19:55:37.547Z,93296.64
2019-01-25T19:58:13.100Z,93294.83
2019-01-25T20:00:47.042Z,93293.89
2019-01-25T20:03:20.681Z,93290.55
2019-01-25T20:05:55.463Z,93286.51
2019-01-25T20:08:30.294Z,93288.02
2019-01-25T20:11:04.579Z,93287.87
2019-01-25T20:13:38.805Z,93282.79
2019-01-25T20:16:24.829Z,93277.73
2019-01-25T20:19:07.069Z,93279.22
2019-01-25T20:21:47.007Z,93275.02
2019-01-25T20:24:20.489Z,93284.39
2019-01-25T20:26:54.287Z,93296.84
2019-01-25T20:29:29.357Z,93297.79
2019-01-25T20:32:02.851Z,93299.72
2019-01-25T20:34:36.816Z,93300.89
2019-01-25T20:37:10.318Z,93299.23
2019-01-25T20:39:44.873Z,93309.76
2019-01-25T20:42:18.988Z,93303.45
2019-01-25T20:44:52.620Z,93310.92
2019-01-25T20:47:26.073Z,93310.17
2019-01-25T20:50:00.224Z,93300.55
2019-01-25T20:52:33.545Z,93303.75
2019-01-25T20:55:08.241Z,93306.56
2019-01-25T20:57:44.057Z,93305.40
2019-01-25T21:00:18.523Z,93306.36
2019-01-25T21:02:54.922Z,93316.33
2019-01-25T21:05:28.746Z,93318.64
2019-01-25T21:08:02.196Z,93316.23
2019-01-25T21:10:36.508Z,93324.64
2019-01-25T21:13:11.556Z,93337.08
2019-01-25T21:15:54.897Z,93335.39
2019-01-25T21:18:39.510Z,93332.06
2019-01-25T21:21:25.240Z,93336.33
2019-01-25T21:24:06.552Z,93331.15
2019-01-25T21:26:39.899Z,93338.64
2019-01-25T21:29:13.724Z,93340.85
2019-01-25T21:31:47.282Z,93344.59
2019-01-25T21:34:20.769Z,93346.06
2019-01-25T21:36:54.542Z,93337.70
2019-01-25T21:39:28.591Z,93341.66
2019-01-25T21:42:02.643Z,93334.51
2019-01-25T21:44:36.787Z,93333.02
2019-01-25T21:47:09.848Z,93330.55
2019-01-25T21:49:42.113Z,93336.95
2019-01-25T21:52:15.992Z,93336.78
2019-01-25T21:54:49.685Z,93339.34
2019-01-25T22:15:20.012Z,93354.86
2019-01-25T22:18:04.187Z,93371.11
2019-01-25T22:20:37.113Z,93366.17
2019-01-25T22:23:21.147Z,93362.10
2019-01-25T22:26:08.032Z,93368.83
2019-01-25T22:28:41.683Z,93367.66
2019-01-25T22:31:15.146Z,93364.79
2019-01-25T22:33:48.722Z,93368.38
2019-01-25T22:36:22.558Z,93373.30
2019-01-25T22:38:56.063Z,93371.09
2019-01-25T22:41:29.920Z,93369.83
2019-01-25T22:44:03.775Z,93373.41
2019-01-25T22:46:36.994Z,93369.92
2019-01-25T22:49:10.480Z,93368.14
2019-01-25T22:51:43.571Z,93374.02
2019-01-25T22:54:16.132Z,93373.02
2019-01-25T22:56:49.455Z,93369.12
2019-01-25T22:59:23.459Z,93378.61
2019-01-25T23:01:56.666Z,93387.22
2019-01-25T23:05:20.299Z,93368.14
2019-01-25T23:07:53.332Z,93361.66
2019-01-25T23:10:25.092Z,93368.82
2019-01-25T23:12:58.319Z,93380.73
2019-01-25T23:15:41.034Z,93379.52
2019-01-25T23:18:14.238Z,93366.03
2019-01-25T23:20:59.659Z,93363.46
2019-01-25T23:23:45.374Z,93373.63
2019-01-25T23:26:28.315Z,93382.52
2019-01-25T23:29:01.403Z,93388.69
2019-01-25T23:31:34.378Z,93389.39
2019-01-25T23:34:07.585Z,93379.23
2019-01-25T23:36:40.320Z,93384.10
2019-01-25T23:39:13.687Z,93374.34
2019-01-25T23:41:46.713Z,93378.53
2019-01-25T23:44:18.848Z,93373.43
2019-01-25T23:46:51.877Z,93373.73
2019-01-25T23:49:25.041Z,93364.93
2019-01-25T23:51:58.627Z,93367.64
2019-01-25T23:54:31.826Z,93377.10
2019-01-25T23:57:05.281Z,93388.97
2019-01-25T23:59:38.229Z,93394.47
